Airfield :
LOGIN :

Register | Disclaimer

   EN    FR    IT 

 










Legend :    VFR   Marginal VFR   IFR   Intensive IFR   Very Intensive IFR
Visi :
Ceiling :
>= 8 km
>= 3000ft
5 to 8 km
1000 to 3000 ft
1500m to 5 km
500 to 1000 ft
800 to 1500m
200 to 500 ft
< 800m
< 200 ft
Symbols :   Thunderstorms  Fog  Heavy snow  Heavy precipitations  Wind > 20 kt
SIGMETs :     Misc.  Thunderstorms  Icing  Turbulence  Mountain Waves  Volcanic Ashes






- Airport Elevation : 277 ft
- IATA code : JER


EGJJ - Jersey

CURRENT METAR :
  • 122050Z AUTO 34003KT 300V030 9999 NCD 14/12 Q1026

EXPIRED METARs :
  • 122020Z AUTO 33004KT 300V020 9999 NCD 14/12 Q1026
  • 121950Z AUTO 33004KT 290V020 9999 NCD 15/12 Q1026
  • 121920Z 30005KT 280V350 CAVOK 16/13 Q1026
  • 121850Z 28005KT 240V330 CAVOK 16/13 Q1026
  • 121820Z 32005KT 270V010 CAVOK 16/13 Q1026

TAF TAF EGJJ
Valid from the 12 at 21:00 until the 13 at 06:00 UTC


121957Z 1221/1306 35006KT CAVOK
ATIS : +44 1534 498 073



MET'MAP, your aeronautical weather chart ! - Copyright ORBIFLY December 2007 - Disclaimer

ORBIFLY MET'MAP TEAM :

Programming & Development : Alexandra Zaïnal
Concept & original design : Baudouin d'Aumeries
Assistance for programming : Marc-Olivier Méhu
Technical & hardware support : Manuel Goepfert

Contact : metmap@orbifly.com




SOURCES & CREDITS :

   NOAA